Usti Nad Orlici, Czech Republic
Current Conditions -  °F | °C
As of 8:00 PM on Thursday 30 Oct 2014 (Local Time) from LKPD Reporting Station
Overcast Overcast  
Wind Chill: 46°   Ceiling: 2800
Heat Index: 46°   Visibility: 5mi
Dew Point: 43°   Wind: 3mph
Humidity: 87%   Direction: 280°W
Pressure: 30.33"   Gusts: NA
Location:  49.97°N, 16.4°E
Report Text: LKPD 301800Z 28003KT 8000 OVC028 08/06 Q1027 NOSIG
Loading
Personal Weather Stations






























Interactive Weather Map
Tropical Storm Tracking
New forecast layout! Learn more

10-Day Weather Forecast

Advertisements
Track Severe Weather on mobile